Siauliai, Lithuania
Current Conditions -  °F | °C
As of 8:50 PM on Saturday 22 Nov 2014 (Local Time) from EYSA Reporting Station
Moderate Fog Moderate Fog  
Wind Chill: 32°   Ceiling: 200
Heat Index: 32°   Visibility: 0.34mi
Dew Point: 32°   Wind: 2mph
Humidity: 100%   Direction: 250°WSW
Pressure: 30.33"   Gusts: NA
Location:  55.93°N, 23.32°E
Report Text: EYSA 221750Z 25002KT 0550 R14L/0650N FG VV002 00/00 Q1027 R14L/2///95 R14R/2///95
Loading
Personal Weather Stations






























Interactive Weather Map New forecast layout! Learn more

10-Day Weather Forecast

Advertisements
Track Severe Weather on mobile